Time,TemperatureF,DewpointF,PressureIn,WindDirection,WindDirectionDegrees,WindSpeedMPH,WindSpeedGustMPH,Humidity,HourlyPrecipIn,Conditions,Clouds,dailyrainin,SoftwareType,DateUTC
2013-03-20 00:02:00,36.9,28.7,30.21,ESE,120,0.0,0.0,72,0.00,CLR,FEW,0.00,WeatherDisplay:10.37,2013-03-20 06:02:00,
2013-03-20 00:07:00,36.7,28.9,30.21,ESE,120,0.0,0.0,73,0.00,CLR,FEW,0.00,WeatherDisplay:10.37,2013-03-20 06:07:00,
2013-03-20 00:12:00,36.5,28.7,30.21,ESE,120,0.0,0.0,73,0.00,CLR,FEW,0.00,WeatherDisplay:10.37,2013-03-20 06:12:00,
2013-03-20 00:17:00,36.2,29.0,30.21,ESE,120,1.1,1.1,75,0.00,CLR,FEW,0.00,WeatherDisplay:10.37,2013-03-20 06:17:00,
2013-03-20 00:22:00,35.9,29.1,30.21,ESE,120,0.0,0.0,76,0.00,CLR,FEW,0.00,WeatherDisplay:10.37,2013-03-20 06:22:00,
2013-03-20 00:27:00,35.6,28.8,30.21,ESE,120,0.0,0.0,76,0.00,CLR,FEW,0.00,WeatherDisplay:10.37,2013-03-20 06:27:00,
2013-03-20 00:32:00,35.3,28.5,30.21,ESE,120,0.0,0.0,76,0.00,CLR,FEW,0.00,WeatherDisplay:10.37,2013-03-20 06:32:00,
2013-03-20 00:37:00,35.1,28.0,30.22,ESE,120,0.0,0.0,75,0.00,CLR,FEW,0.00,WeatherDisplay:10.37,2013-03-20 06:37:00,
2013-03-20 00:42:00,35.0,28.2,30.21,ESE,120,0.0,0.0,76,0.00,CLR,FEW,0.00,WeatherDisplay:10.37,2013-03-20 06:42:00,
2013-03-20 00:47:00,34.7,26.9,30.22,ESE,120,0.0,0.0,73,0.00,CLR,FEW,0.00,WeatherDisplay:10.37,2013-03-20 06:47:00,
2013-03-20 00:53:00,34.4,26.6,30.22,ESE,120,0.0,0.0,73,0.00,CLR,FEW,0.00,WeatherDisplay:10.37,2013-03-20 06:53:00,
2013-03-20 00:58:00,34.3,26.9,30.22,ESE,120,0.0,0.0,74,0.00,CLR,FEW,0.00,WeatherDisplay:10.37,2013-03-20 06:58:00,
2013-03-20 01:03:00,34.3,26.9,30.22,ESE,120,0.0,0.0,74,0.00,CLR,FEW,0.00,WeatherDisplay:10.37,2013-03-20 07:03:00,
2013-03-20 01:08:00,34.2,26.8,30.21,ESE,120,0.0,0.0,74,0.00,CLR,FEW,0.00,WeatherDisplay:10.37,2013-03-20 07:08:00,
2013-03-20 01:13:00,33.9,26.2,30.21,ESE,120,0.0,0.0,73,0.00,CLR,FEW,0.00,WeatherDisplay:10.37,2013-03-20 07:13:00,
2013-03-20 01:18:00,33.7,26.3,30.21,ESE,120,0.0,0.0,74,0.00,CLR,FEW,0.00,WeatherDisplay:10.37,2013-03-20 07:18:00,
2013-03-20 01:23:00,33.6,26.8,30.21,ESE,120,0.0,0.0,76,0.00,CLR,FEW,0.00,WeatherDisplay:10.37,2013-03-20 07:23:00,
2013-03-20 01:28:00,33.4,26.6,30.21,ESE,120,0.0,0.0,76,0.00,CLR,FEW,0.00,WeatherDisplay:10.37,2013-03-20 07:28:00,
2013-03-20 01:33:00,33.4,27.0,30.20,ESE,120,0.0,0.0,77,0.00,CLR,FEW,0.00,WeatherDisplay:10.37,2013-03-20 07:33:00,
2013-03-20 01:38:00,33.3,25.9,30.20,ESE,120,0.0,0.0,74,0.00,CLR,FEW,0.00,WeatherDisplay:10.37,2013-03-20 07:38:00,
2013-03-20 01:43:00,33.2,25.5,30.20,ESE,120,0.0,0.0,73,0.00,CLR,FEW,0.00,WeatherDisplay:10.37,2013-03-20 07:43:00,
2013-03-20 01:48:00,32.9,25.5,30.20,ESE,120,0.0,0.0,74,0.00,CLR,FEW,0.00,WeatherDisplay:10.37,2013-03-20 07:48:00,
2013-03-20 01:53:00,32.7,25.3,30.20,ESE,120,0.0,0.0,74,0.00,CLR,FEW,0.00,WeatherDisplay:10.37,2013-03-20 07:53:00,
2013-03-20 01:58:00,32.5,26.4,30.19,ESE,120,0.0,0.0,78,0.00,CLR,FEW,0.00,WeatherDisplay:10.37,2013-03-20 07:58:00,
2013-03-20 02:03:00,32.0,26.5,30.19,ESE,120,1.1,1.1,80,0.00,CLR,FEW,0.00,WeatherDisplay:10.37,2013-03-20 08:03:00,
2013-03-20 02:08:00,31.7,26.8,30.19,ESE,120,0.0,0.0,82,0.00,CLR,FEW,0.00,WeatherDisplay:10.37,2013-03-20 08:08:00,
2013-03-20 02:13:00,31.4,26.8,30.19,ESE,120,0.0,0.0,83,0.00,CLR,FEW,0.00,WeatherDisplay:10.37,2013-03-20 08:13:00,
2013-03-20 02:18:00,31.0,26.1,30.18,ESE,120,0.0,0.0,82,0.00,CLR,FEW,0.00,WeatherDisplay:10.37,2013-03-20 08:18:00,
2013-03-20 02:23:00,30.8,25.7,30.18,ESE,120,0.0,0.0,81,0.00,CLR,FEW,0.00,WeatherDisplay:10.37,2013-03-20 08:23:00,
2013-03-20 02:28:00,30.7,25.6,30.18,ESE,120,0.0,0.0,81,0.00,CLR,FEW,0.00,WeatherDisplay:10.37,2013-03-20 08:28:00,
2013-03-20 02:33:00,30.7,25.3,30.17,ESE,120,0.0,0.0,80,0.00,CLR,FEW,0.00,WeatherDisplay:10.37,2013-03-20 08:33:00,
2013-03-20 02:38:00,30.7,25.3,30.18,ESE,120,0.0,0.0,80,0.00,CLR,FEW,0.00,WeatherDisplay:10.37,2013-03-20 08:38:00,
2013-03-20 02:43:00,30.6,25.2,30.18,ESE,120,0.0,0.0,80,0.00,CLR,FEW,0.00,WeatherDisplay:10.37,2013-03-20 08:43:00,
2013-03-20 02:48:00,30.4,25.0,30.18,ESE,120,0.0,0.0,80,0.00,CLR,FEW,0.00,WeatherDisplay:10.37,2013-03-20 08:48:00,
2013-03-20 02:53:00,30.2,25.1,30.18,ESE,120,0.0,0.0,81,0.00,CLR,FEW,0.00,WeatherDisplay:10.37,2013-03-20 08:53:00,
2013-03-20 02:58:00,30.3,25.2,30.18,ESE,120,0.0,0.0,81,0.00,CLR,FEW,0.00,WeatherDisplay:10.37,2013-03-20 08:58:00,
2013-03-20 03:03:00,30.2,24.8,30.18,ESE,120,0.0,0.0,80,0.00,CLR,FEW,0.00,WeatherDisplay:10.37,2013-03-20 09:03:00,
2013-03-20 03:08:00,30.2,24.8,30.18,ESE,120,0.0,0.0,80,0.00,CLR,FEW,0.00,WeatherDisplay:10.37,2013-03-20 09:08:00,
2013-03-20 03:13:00,30.3,24.6,30.17,ESE,120,0.0,0.0,79,0.00,CLR,FEW,0.00,WeatherDisplay:10.37,2013-03-20 09:13:00,
2013-03-20 03:18:00,30.3,24.6,30.17,ESE,120,0.0,0.0,79,0.00,CLR,FEW,0.00,WeatherDisplay:10.37,2013-03-20 09:18:00,
2013-03-20 03:23:00,30.3,24.9,30.17,ESE,120,0.0,0.0,80,0.00,CLR,FEW,0.00,WeatherDisplay:10.37,2013-03-20 09:23:00,
2013-03-20 03:28:00,30.4,24.4,30.17,ESE,120,0.0,0.0,78,0.00,CLR,FEW,0.00,WeatherDisplay:10.37,2013-03-20 09:28:00,
2013-03-20 03:33:00,30.4,24.7,30.17,ESE,120,0.0,0.0,79,0.00,CLR,FEW,0.00,WeatherDisplay:10.37,2013-03-20 09:33:00,
2013-03-20 03:38:00,30.3,25.2,30.17,ESE,120,0.0,0.0,81,0.00,CLR,FEW,0.00,WeatherDisplay:10.37,2013-03-20 09:38:00,
2013-03-20 03:43:00,30.1,24.7,30.17,ESE,120,0.0,0.0,80,0.00,CLR,FEW,0.00,WeatherDisplay:10.37,2013-03-20 09:43:00,
2013-03-20 03:48:00,30.0,24.9,30.18,ESE,120,0.0,0.0,81,0.00,CLR,FEW,0.00,WeatherDisplay:10.37,2013-03-20 09:48:00,
2013-03-20 03:53:00,29.9,24.8,30.18,ESE,120,0.0,0.0,81,0.00,CLR,FEW,0.00,WeatherDisplay:10.37,2013-03-20 09:53:00,
2013-03-20 03:59:00,29.8,24.7,30.18,ESE,120,0.0,0.0,81,0.00,CLR,FEW,0.00,WeatherDisplay:10.37,2013-03-20 09:59:00,
2013-03-20 04:04:00,29.7,24.9,30.18,ESE,120,0.0,0.0,82,0.00,CLR,FEW,0.00,WeatherDisplay:10.37,2013-03-20 10:04:00,
2013-03-20 04:09:00,29.7,24.9,30.18,ESE,120,0.0,0.0,82,0.00,CLR,FEW,0.00,WeatherDisplay:10.37,2013-03-20 10:09:00,
2013-03-20 04:14:00,29.7,24.9,30.18,ESE,120,0.0,0.0,82,0.00,CLR,FEW,0.00,WeatherDisplay:10.37,2013-03-20 10:14:00,
2013-03-20 04:19:00,29.7,24.9,30.18,ESE,120,0.0,0.0,82,0.00,CLR,FEW,0.00,WeatherDisplay:10.37,2013-03-20 10:19:00,
2013-03-20 04:24:00,29.6,24.8,30.18,ESE,120,0.0,0.0,82,0.00,CLR,FEW,0.00,WeatherDisplay:10.37,2013-03-20 10:24:00,
2013-03-20 04:29:00,29.5,25.0,30.18,ESE,120,0.0,0.0,83,0.00,CLR,FEW,0.00,WeatherDisplay:10.37,2013-03-20 10:29:00,
2013-03-20 04:34:00,29.4,25.2,30.18,ESE,120,1.1,0.0,84,0.00,CLR,FEW,0.00,WeatherDisplay:10.37,2013-03-20 10:34:00,
2013-03-20 04:39:00,29.3,25.1,30.19,ESE,120,0.0,0.0,84,0.00,CLR,FEW,0.00,WeatherDisplay:10.37,2013-03-20 10:39:00,
2013-03-20 04:44:00,29.2,25.3,30.19,ESE,120,0.0,0.0,85,0.00,CLR,FEW,0.00,WeatherDisplay:10.37,2013-03-20 10:44:00,
2013-03-20 04:49:00,29.1,25.2,30.19,ESE,120,0.0,0.0,85,0.00,CLR,FEW,0.00,WeatherDisplay:10.37,2013-03-20 10:49:00,
2013-03-20 04:54:00,28.9,25.2,30.19,ESE,120,0.0,0.0,86,0.00,CLR,FEW,0.00,WeatherDisplay:10.37,2013-03-20 10:54:00,
2013-03-20 04:59:00,28.7,24.8,30.19,ESE,120,0.0,0.0,85,0.00,CLR,FEW,0.00,WeatherDisplay:10.37,2013-03-20 10:59:00,
2013-03-20 05:04:00,28.6,24.9,30.20,ESE,120,1.1,0.0,86,0.00,CLR,FEW,0.00,WeatherDisplay:10.37,2013-03-20 11:04:00,
2013-03-20 05:09:00,28.5,24.8,30.20,ESE,120,0.0,0.0,86,0.00,CLR,FEW,0.00,WeatherDisplay:10.37,2013-03-20 11:09:00,
2013-03-20 05:14:00,28.5,25.1,30.20,ESE,120,1.1,1.1,87,0.00,CLR,FEW,0.00,WeatherDisplay:10.37,2013-03-20 11:14:00,
2013-03-20 05:19:00,28.5,25.1,30.20,ESE,120,0.0,0.0,87,0.00,CLR,FEW,0.00,WeatherDisplay:10.37,2013-03-20 11:19:00,
2013-03-20 05:24:00,28.5,25.1,30.20,ESE,120,0.0,0.0,87,0.00,CLR,FEW,0.00,WeatherDisplay:10.37,2013-03-20 11:24:00,
2013-03-20 05:29:00,28.4,24.7,30.20,ESE,120,0.0,0.0,86,0.00,CLR,FEW,0.00,WeatherDisplay:10.37,2013-03-20 11:29:00,
2013-03-20 05:34:00,28.4,24.7,30.20,ESE,120,0.0,0.0,86,0.00,CLR,FEW,0.00,WeatherDisplay:10.37,2013-03-20 11:34:00,
2013-03-20 05:39:00,28.3,24.9,30.20,ESE,120,0.0,0.2,87,0.00,CLR,FEW,0.00,WeatherDisplay:10.37,2013-03-20 11:39:00,
2013-03-20 05:44:00,28.4,24.7,30.20,ESE,120,0.0,0.0,86,0.00,CLR,FEW,0.00,WeatherDisplay:10.37,2013-03-20 11:44:00,
2013-03-20 05:49:00,28.4,24.7,30.20,ESE,120,0.0,0.0,86,0.00,CLR,FEW,0.00,WeatherDisplay:10.37,2013-03-20 11:49:00,
2013-03-20 05:54:00,28.3,24.6,30.20,ESE,120,0.0,0.0,86,0.00,CLR,FEW,0.00,WeatherDisplay:10.37,2013-03-20 11:54:00,
2013-03-20 05:59:00,28.3,24.6,30.20,ESE,120,0.0,0.0,86,0.00,CLR,FEW,0.00,WeatherDisplay:10.37,2013-03-20 11:59:00,
2013-03-20 06:04:00,28.3,24.6,30.21,ESE,120,0.0,0.0,86,0.00,CLR,FEW,0.00,WeatherDisplay:10.37,2013-03-20 12:04:00,
2013-03-20 06:09:00,28.3,24.6,30.21,ESE,120,0.0,0.0,86,0.00,CLR,FEW,0.00,WeatherDisplay:10.37,2013-03-20 12:09:00,
2013-03-20 06:15:00,28.4,24.7,30.21,ESE,120,1.1,1.1,86,0.00,CLR,FEW,0.00,WeatherDisplay:10.37,2013-03-20 12:15:00,
2013-03-20 06:20:00,28.4,24.7,30.21,ESE,120,1.1,1.1,86,0.00,CLR,FEW,0.00,WeatherDisplay:10.37,2013-03-20 12:20:00,
2013-03-20 06:25:00,28.6,24.9,30.21,ESE,120,0.0,0.0,86,0.00,CLR,FEW,0.00,WeatherDisplay:10.37,2013-03-20 12:25:00,
2013-03-20 06:30:00,28.8,25.4,30.20,ESE,120,0.0,0.0,87,0.00,CLR,FEW,0.00,WeatherDisplay:10.37,2013-03-20 12:30:00,
2013-03-20 06:35:00,29.0,25.9,30.20,ESE,120,0.0,0.0,88,0.00,CLR,FEW,0.00,WeatherDisplay:10.37,2013-03-20 12:35:00,
2013-03-20 06:40:00,29.1,26.0,30.21,ESE,120,0.0,0.0,88,0.00,CLR,FEW,0.00,WeatherDisplay:10.37,2013-03-20 12:40:00,
2013-03-20 06:45:00,29.3,26.5,30.21,ESE,120,1.1,1.1,89,0.00,CLR,FEW,0.00,WeatherDisplay:10.37,2013-03-20 12:45:00,
2013-03-20 06:50:00,29.6,26.8,30.21,ESE,120,0.0,0.0,89,0.00,CLR,FEW,0.00,WeatherDisplay:10.37,2013-03-20 12:50:00,
2013-03-20 06:55:00,29.9,27.1,30.21,ESE,120,0.0,0.0,89,0.00,CLR,FEW,0.00,WeatherDisplay:10.37,2013-03-20 12:55:00,
2013-03-20 07:00:00,30.3,27.4,30.21,ESE,120,0.0,0.0,89,0.00,CLR,FEW,0.00,WeatherDisplay:10.37,2013-03-20 13:00:00,
2013-03-20 07:05:00,31.0,27.9,30.21,ESE,120,0.0,0.0,88,0.00,CLR,FEW,0.00,WeatherDisplay:10.37,2013-03-20 13:05:00,
2013-03-20 07:10:00,31.6,28.5,30.21,ESE,120,0.0,0.0,88,0.00,CLR,FEW,0.00,WeatherDisplay:10.37,2013-03-20 13:10:00,
2013-03-20 07:15:00,32.4,29.2,30.22,ESE,120,0.0,0.0,88,0.00,CLR,FEW,0.00,WeatherDisplay:10.37,2013-03-20 13:15:00,
2013-03-20 07:20:00,33.1,29.7,30.22,ESE,120,0.0,0.0,87,0.00,CLR,FEW,0.00,WeatherDisplay:10.37,2013-03-20 13:20:00,
2013-03-20 07:25:00,33.8,30.1,30.22,ESE,119,1.1,1.1,86,0.00,CLR,FEW,0.00,WeatherDisplay:10.37,2013-03-20 13:25:00,
2013-03-20 07:30:00,34.5,30.2,30.22,ESE,119,0.0,0.0,84,0.00,CLR,FEW,0.00,WeatherDisplay:10.37,2013-03-20 13:30:00,
2013-03-20 07:35:00,35.1,30.8,30.22,ESE,119,0.0,0.0,84,0.00,CLR,FEW,0.00,WeatherDisplay:10.37,2013-03-20 13:35:00,
2013-03-20 07:40:00,36.0,31.0,30.22,ESE,119,2.3,2.3,82,0.00,CLR,FEW,0.00,WeatherDisplay:10.37,2013-03-20 13:40:00,
2013-03-20 07:45:00,37.0,31.7,30.22,SSW,198,3.5,3.5,81,0.00,CLR,FEW,0.00,WeatherDisplay:10.37,2013-03-20 13:45:00,
2013-03-20 07:50:00,38.0,32.1,30.22,West,279,1.1,1.5,79,0.00,CLR,FEW,0.00,WeatherDisplay:10.37,2013-03-20 13:50:00,
2013-03-20 07:55:00,39.0,32.1,30.22,WNW,297,4.6,4.6,76,0.00,CLR,FEW,0.00,WeatherDisplay:10.37,2013-03-20 13:55:00,
2013-03-20 08:00:00,39.7,32.1,30.22,WNW,300,6.9,6.9,74,0.00,CLR,FEW,0.00,WeatherDisplay:10.37,2013-03-20 14:00:00,
2013-03-20 08:05:00,40.4,32.4,30.21,NW,315,3.5,3.5,73,0.00,CLR,FEW,0.00,WeatherDisplay:10.37,2013-03-20 14:05:00,
2013-03-20 08:10:00,41.0,32.0,30.21,WNW,291,5.8,5.8,70,0.00,CLR,FEW,0.00,WeatherDisplay:10.37,2013-03-20 14:10:00,
2013-03-20 08:15:00,41.4,32.3,30.21,WNW,282,3.5,3.5,70,0.00,CLR,FEW,0.00,WeatherDisplay:10.37,2013-03-20 14:15:00,
2013-03-20 08:20:00,42.0,33.6,30.21,WNW,294,4.6,4.6,72,0.00,CLR,FEW,0.00,WeatherDisplay:10.37,2013-03-20 14:20:00,
2013-03-20 08:25:00,42.3,31.4,30.20,NNW,348,6.9,6.9,65,0.00,CLR,FEW,0.00,WeatherDisplay:10.37,2013-03-20 14:25:00,
2013-03-20 08:30:00,42.6,31.7,30.20,WNW,302,5.8,5.8,65,0.00,CLR,FEW,0.00,WeatherDisplay:10.37,2013-03-20 14:30:00,
2013-03-20 08:35:00,43.0,32.8,30.20,North,360,6.9,6.9,67,0.00,CLR,FEW,0.00,WeatherDisplay:10.37,2013-03-20 14:35:00,
2013-03-20 08:40:00,43.4,32.8,30.21,WNW,300,4.6,4.6,66,0.00,CLR,FEW,0.00,WeatherDisplay:10.37,2013-03-20 14:40:00,
2013-03-20 08:45:00,44.0,32.6,30.21,WNW,290,6.4,6.4,64,0.00,CLR,FEW,0.00,WeatherDisplay:10.37,2013-03-20 14:45:00,
2013-03-20 08:50:00,44.1,32.3,30.21,WNW,294,4.6,4.6,63,0.00,CLR,FEW,0.00,WeatherDisplay:10.37,2013-03-20 14:50:00,
2013-03-20 08:55:00,44.6,32.4,30.21,WNW,301,3.5,3.5,62,0.00,CLR,FEW,0.00,WeatherDisplay:10.37,2013-03-20 14:55:00,
2013-03-20 09:00:00,44.8,32.6,30.21,WNW,291,6.9,6.9,62,0.00,CLR,FEW,0.00,WeatherDisplay:10.37,2013-03-20 15:00:00,
2013-03-20 09:05:00,45.0,32.8,30.20,WNW,284,3.5,3.5,62,0.00,CLR,FEW,0.00,WeatherDisplay:10.37,2013-03-20 15:05:00,
2013-03-20 09:10:00,45.2,32.9,30.20,WNW,297,8.1,8.1,62,0.00,CLR,FEW,0.00,WeatherDisplay:10.37,2013-03-20 15:10:00,
2013-03-20 09:15:00,45.6,33.3,30.20,NW,323,6.9,6.9,62,0.00,CLR,FEW,0.00,WeatherDisplay:10.37,2013-03-20 15:15:00,
2013-03-20 09:20:00,45.8,32.3,30.20,West,261,3.5,3.5,59,0.00,CLR,FEW,0.00,WeatherDisplay:10.37,2013-03-20 15:20:00,
2013-03-20 09:25:00,46.1,33.8,30.20,WNW,296,6.9,6.9,62,0.00,CLR,FEW,0.00,WeatherDisplay:10.37,2013-03-20 15:25:00,
2013-03-20 09:30:00,46.5,33.4,30.20,WSW,255,4.6,4.6,60,0.00,CLR,FEW,0.00,WeatherDisplay:10.37,2013-03-20 15:30:00,
2013-03-20 09:35:00,46.7,33.5,30.20,NNW,331,8.1,8.1,60,0.00,CLR,FEW,0.00,WeatherDisplay:10.37,2013-03-20 15:35:00,
2013-03-20 09:40:00,46.6,33.0,30.20,WNW,292,9.2,9.2,59,0.00,CLR,FEW,0.00,WeatherDisplay:10.37,2013-03-20 15:40:00,
2013-03-20 09:45:00,47.2,33.2,30.20,WNW,296,9.2,9.2,58,0.00,CLR,FEW,0.00,WeatherDisplay:10.37,2013-03-20 15:45:00,
2013-03-20 09:50:00,47.3,32.4,30.21,WNW,291,9.2,9.2,56,0.00,CLR,FEW,0.00,WeatherDisplay:10.37,2013-03-20 15:50:00,
2013-03-20 09:55:00,47.0,32.1,30.21,NW,313,9.2,9.2,56,0.00,CLR,FEW,0.00,WeatherDisplay:10.37,2013-03-20 15:55:00,
2013-03-20 10:00:00,46.7,31.8,30.20,NW,311,9.2,9.2,56,0.00,CLR,FEW,0.00,WeatherDisplay:10.37,2013-03-20 16:00:00,
2013-03-20 10:06:00,47.0,33.4,30.20,WNW,293,10.4,10.4,59,0.00,FEW,,0.00,WeatherDisplay:10.37,2013-03-20 16:06:00,
2013-03-20 10:11:00,47.4,33.8,30.20,West,277,11.5,11.5,59,0.00,FEW,,0.00,WeatherDisplay:10.37,2013-03-20 16:11:00,
2013-03-20 10:16:00,47.4,32.9,30.20,WNW,297,8.1,8.1,57,0.00,FEW,,0.00,WeatherDisplay:10.37,2013-03-20 16:16:00,
2013-03-20 10:21:00,47.9,32.9,30.20,West,269,8.1,8.1,56,0.00,FEW,,0.00,WeatherDisplay:10.37,2013-03-20 16:21:00,
2013-03-20 10:26:00,48.3,33.3,30.19,NW,309,9.2,9.2,56,0.00,FEW,,0.00,WeatherDisplay:10.37,2013-03-20 16:26:00,
2013-03-20 10:31:00,48.3,32.9,30.19,WNW,302,8.1,8.1,55,0.00,FEW,,0.00,WeatherDisplay:10.37,2013-03-20 16:31:00,
2013-03-20 10:36:00,47.9,31.6,30.20,WNW,296,9.2,9.2,53,0.00,FEW,,0.00,WeatherDisplay:10.37,2013-03-20 16:36:00,
2013-03-20 10:41:00,48.1,31.8,30.19,WSW,239,8.1,8.1,53,0.00,FEW,,0.00,WeatherDisplay:10.37,2013-03-20 16:41:00,
2013-03-20 10:46:00,48.1,32.2,30.20,North,355,8.1,8.1,54,0.00,FEW,,0.00,WeatherDisplay:10.37,2013-03-20 16:46:00,
2013-03-20 10:51:00,48.6,33.6,30.19,WNW,301,6.9,6.9,56,0.00,FEW,,0.00,WeatherDisplay:10.37,2013-03-20 16:51:00,
2013-03-20 10:56:00,49.0,31.6,30.19,WNW,302,9.2,9.2,51,0.00,FEW,,0.00,WeatherDisplay:10.37,2013-03-20 16:56:00,
2013-03-20 11:01:00,49.6,31.7,30.20,WNW,288,9.2,9.2,50,0.00,FEW,,0.00,WeatherDisplay:10.37,2013-03-20 17:01:00,
2013-03-20 11:07:00,49.1,32.7,30.19,WNW,294,8.1,8.1,53,0.00,FEW,,0.00,WeatherDisplay:10.37,2013-03-20 17:07:00,
2013-03-20 11:12:00,49.0,32.6,30.19,West,267,9.2,9.2,53,0.00,FEW,,0.00,WeatherDisplay:10.37,2013-03-20 17:12:00,
2013-03-20 11:17:00,49.0,32.1,30.19,NW,305,10.4,10.4,52,0.00,FEW,,0.00,WeatherDisplay:10.37,2013-03-20 17:17:00,
2013-03-20 11:22:00,48.6,31.8,30.19,West,259,9.2,9.2,52,0.00,SCT,FEW,0.00,WeatherDisplay:10.37,2013-03-20 17:22:00,
2013-03-20 11:27:00,48.8,31.5,30.19,NNW,345,13.8,13.8,51,0.00,SCT,FEW,0.00,WeatherDisplay:10.37,2013-03-20 17:27:00,
2013-03-20 11:32:00,49.3,31.9,30.18,WNW,301,9.2,9.2,51,0.00,SCT,FEW,0.00,WeatherDisplay:10.37,2013-03-20 17:32:00,
2013-03-20 11:37:00,48.0,29.7,30.18,WNW,292,9.2,9.2,49,0.00,SCT,FEW,0.00,WeatherDisplay:10.37,2013-03-20 17:37:00,
2013-03-20 11:42:00,47.6,28.9,30.18,WNW,294,11.5,11.5,48,0.00,SCT,FEW,0.00,WeatherDisplay:10.37,2013-03-20 17:42:00,
2013-03-20 11:47:00,47.6,30.8,30.17,WSW,247,8.1,8.1,52,0.00,SCT,FEW,0.00,WeatherDisplay:10.37,2013-03-20 17:47:00,
2013-03-20 11:52:00,49.1,31.2,30.17,NW,308,10.4,10.4,50,0.00,SCT,FEW,0.00,WeatherDisplay:10.37,2013-03-20 17:52:00,
2013-03-20 11:57:00,48.6,30.8,30.17,NW,311,8.1,8.1,50,0.00,SCT,FEW,0.00,WeatherDisplay:10.37,2013-03-20 17:57:00,
2013-03-20 12:02:00,47.7,30.4,30.17,NW,321,10.4,10.4,51,0.00,SCT,FEW,0.00,WeatherDisplay:10.37,2013-03-20 18:02:00,
2013-03-20 12:07:00,47.3,30.1,30.17,WSW,252,9.2,9.2,51,0.00,SCT,FEW,0.00,WeatherDisplay:10.37,2013-03-20 18:07:00,
2013-03-20 12:12:00,47.0,30.7,30.16,West,268,8.1,8.1,53,0.00,SCT,FEW,0.00,WeatherDisplay:10.37,2013-03-20 18:12:00,
2013-03-20 12:17:00,46.8,30.1,30.17,West,271,11.5,11.5,52,0.00,SCT,FEW,0.00,WeatherDisplay:10.37,2013-03-20 18:17:00,
2013-03-20 12:22:00,46.8,30.1,30.16,West,281,9.2,9.2,52,0.00,SCT,FEW,0.00,WeatherDisplay:10.37,2013-03-20 18:22:00,
2013-03-20 12:28:00,46.8,30.1,30.16,West,281,13.8,13.8,52,0.00,SCT,FEW,0.00,WeatherDisplay:10.37,2013-03-20 18:28:00,
2013-03-20 12:33:00,47.0,30.3,30.16,WNW,300,12.7,12.7,52,0.00,SCT,FEW,0.00,WeatherDisplay:10.37,2013-03-20 18:33:00,
2013-03-20 12:38:00,47.0,31.2,30.15,West,271,10.4,10.4,54,0.00,SCT,FEW,0.00,WeatherDisplay:10.37,2013-03-20 18:38:00,
2013-03-20 12:43:00,46.9,31.1,30.15,North,360,6.9,6.9,54,0.00,SCT,FEW,0.00,WeatherDisplay:10.37,2013-03-20 18:43:00,
2013-03-20 12:48:00,47.1,30.8,30.14,NNW,345,11.5,11.5,53,0.00,SCT,FEW,0.00,WeatherDisplay:10.37,2013-03-20 18:48:00,
2013-03-20 12:53:00,46.0,29.8,30.15,West,278,13.8,13.8,53,0.00,SCT,FEW,0.00,WeatherDisplay:10.37,2013-03-20 18:53:00,
2013-03-20 12:58:00,45.3,31.0,30.15,WNW,293,10.7,10.7,57,0.00,SCT,FEW,0.00,WeatherDisplay:10.37,2013-03-20 18:58:00,
2013-03-20 13:03:00,44.6,31.6,30.15,WSW,251,9.2,9.2,60,0.00,BKN,FEW,0.00,WeatherDisplay:10.37,2013-03-20 19:03:00,
2013-03-20 13:08:00,44.1,30.7,30.15,NW,317,15.0,15.0,59,0.00,BKN,FEW,0.00,WeatherDisplay:10.37,2013-03-20 19:08:00,
2013-03-20 13:13:00,43.6,30.2,30.15,WNW,287,15.0,15.0,59,0.00,BKN,FEW,0.00,WeatherDisplay:10.37,2013-03-20 19:13:00,
2013-03-20 13:18:00,43.6,30.6,30.15,WNW,289,11.5,11.5,60,0.00,BKN,FEW,0.00,WeatherDisplay:10.37,2013-03-20 19:18:00,
2013-03-20 13:23:00,43.7,30.3,30.15,West,261,11.5,11.5,59,0.00,BKN,FEW,0.00,WeatherDisplay:10.37,2013-03-20 19:23:00,
2013-03-20 13:28:00,43.5,30.9,30.14,WNW,290,10.4,10.4,61,0.00,BKN,FEW,0.00,WeatherDisplay:10.37,2013-03-20 19:28:00,
2013-03-20 13:33:00,43.8,30.0,30.13,SW,229,8.1,8.1,58,0.00,BKN,FEW,0.00,WeatherDisplay:10.37,2013-03-20 19:33:00,
2013-03-20 13:38:00,44.2,29.9,30.12,West,277,6.9,7.5,57,0.00,BKN,FEW,0.00,WeatherDisplay:10.37,2013-03-20 19:38:00,
2013-03-20 13:43:00,45.0,30.7,30.11,WSW,254,6.9,6.9,57,0.00,BKN,FEW,0.00,WeatherDisplay:10.37,2013-03-20 19:43:00,
2013-03-20 13:49:00,45.9,29.7,30.11,WNW,302,8.1,8.1,53,0.00,BKN,FEW,0.00,WeatherDisplay:10.37,2013-03-20 19:49:00,
2013-03-20 13:54:00,46.9,30.2,30.11,WNW,285,16.1,16.1,52,0.00,BKN,FEW,0.00,WeatherDisplay:10.37,2013-03-20 19:54:00,
2013-03-20 13:59:00,46.6,29.4,30.11,WNW,291,12.7,12.7,51,0.00,BKN,FEW,0.00,WeatherDisplay:10.37,2013-03-20 19:59:00,
2013-03-20 14:04:00,46.7,30.9,30.10,WNW,300,10.4,10.4,54,0.00,BKN,FEW,0.00,WeatherDisplay:10.37,2013-03-20 20:04:00,
2013-03-20 14:09:00,47.0,30.3,30.10,West,261,11.5,11.5,52,0.00,BKN,FEW,0.00,WeatherDisplay:10.37,2013-03-20 20:09:00,
2013-03-20 14:14:00,46.5,29.8,30.11,NW,325,19.6,19.6,52,0.00,BKN,FEW,0.00,WeatherDisplay:10.37,2013-03-20 20:14:00,
2013-03-20 14:19:00,46.2,29.1,30.10,WSW,255,11.5,11.5,51,0.00,BKN,FEW,0.00,WeatherDisplay:10.37,2013-03-20 20:19:00,
2013-03-20 14:24:00,46.5,27.3,30.10,WSW,244,13.8,13.8,47,0.00,BKN,FEW,0.00,WeatherDisplay:10.37,2013-03-20 20:24:00,
2013-03-20 14:29:00,46.4,27.2,30.09,SW,224,18.4,18.4,47,0.00,BKN,FEW,0.00,WeatherDisplay:10.37,2013-03-20 20:29:00,
2013-03-20 14:34:00,46.1,27.5,30.10,WSW,242,10.4,10.4,48,0.00,BKN,FEW,0.00,WeatherDisplay:10.37,2013-03-20 20:34:00,
2013-03-20 14:39:00,46.1,28.5,30.09,WSW,255,8.1,8.1,50,0.00,BKN,FEW,0.00,WeatherDisplay:10.37,2013-03-20 20:39:00,
2013-03-20 14:44:00,46.5,28.3,30.10,West,279,15.0,15.0,49,0.00,BKN,FEW,0.00,WeatherDisplay:10.37,2013-03-20 20:44:00,
2013-03-20 14:49:00,47.1,28.9,30.09,NNW,330,11.5,11.5,49,0.00,BKN,FEW,0.00,WeatherDisplay:10.37,2013-03-20 20:49:00,
2013-03-20 14:54:00,47.3,29.6,30.09,WNW,296,10.4,10.4,50,0.00,BKN,FEW,0.00,WeatherDisplay:10.37,2013-03-20 20:54:00,
2013-03-20 14:59:00,46.9,28.7,30.09,NW,311,15.0,15.0,49,0.00,BKN,FEW,0.00,WeatherDisplay:10.37,2013-03-20 20:59:00,
2013-03-20 15:04:00,46.1,29.4,30.09,WNW,302,17.3,17.3,52,0.00,BKN,FEW,0.00,WeatherDisplay:10.37,2013-03-20 21:04:00,
2013-03-20 15:09:00,45.5,28.9,30.09,North,350,10.4,10.4,52,0.00,BKN,FEW,0.00,WeatherDisplay:10.37,2013-03-20 21:09:00,
2013-03-20 15:14:00,45.2,29.1,30.09,NNW,329,17.3,17.3,53,0.00,BKN,FEW,0.00,WeatherDisplay:10.37,2013-03-20 21:14:00,
2013-03-20 15:19:00,44.9,29.7,30.09,NW,321,11.5,11.5,55,0.00,BKN,FEW,0.00,WeatherDisplay:10.37,2013-03-20 21:19:00,
2013-03-20 15:24:00,44.5,29.8,30.09,NNE,17,13.8,13.8,56,0.00,BKN,FEW,0.00,WeatherDisplay:10.37,2013-03-20 21:24:00,
2013-03-20 15:29:00,43.7,30.3,30.10,WNW,301,13.8,13.8,59,0.00,BKN,FEW,0.00,WeatherDisplay:10.37,2013-03-20 21:29:00,
2013-03-20 15:34:00,42.7,31.0,30.10,WNW,292,8.1,8.1,63,0.00,BKN,FEW,0.00,WeatherDisplay:10.37,2013-03-20 21:34:00,
2013-03-20 15:39:00,42.3,31.4,30.10,WNW,294,9.2,9.2,65,0.00,OVC,FEW,0.00,WeatherDisplay:10.37,2013-03-20 21:39:00,
2013-03-20 15:44:00,42.0,31.5,30.10,NNW,329,11.5,11.5,66,0.00,OVC,FEW,0.00,WeatherDisplay:10.37,2013-03-20 21:44:00,
2013-03-20 15:49:00,41.5,31.0,30.10,NW,310,8.1,8.1,66,0.00,OVC,FEW,0.00,WeatherDisplay:10.37,2013-03-20 21:49:00,
2013-03-20 15:54:00,41.5,31.0,30.10,NNW,338,5.8,5.8,66,0.00,OVC,FEW,0.00,WeatherDisplay:10.37,2013-03-20 21:54:00,
2013-03-20 15:59:00,41.5,30.6,30.10,WNW,300,8.1,8.1,65,0.00,OVC,FEW,0.00,WeatherDisplay:10.37,2013-03-20 21:59:00,
2013-03-20 16:04:00,41.5,30.6,30.10,WNW,294,8.1,8.1,65,0.00,BKN,FEW,0.00,WeatherDisplay:10.37,2013-03-20 22:04:00,
2013-03-20 16:09:00,41.6,30.7,30.10,West,274,8.1,8.1,65,0.00,BKN,FEW,0.00,WeatherDisplay:10.37,2013-03-20 22:09:00,
2013-03-20 16:14:00,41.8,30.9,30.10,WNW,292,6.9,6.9,65,0.00,BKN,FEW,0.00,WeatherDisplay:10.37,2013-03-20 22:14:00,
2013-03-20 16:19:00,42.3,31.4,30.10,NNW,328,5.8,5.8,65,0.00,BKN,FEW,0.00,WeatherDisplay:10.37,2013-03-20 22:19:00,
2013-03-20 16:24:00,43.4,30.4,30.10,West,275,10.4,10.4,60,0.00,BKN,FEW,0.00,WeatherDisplay:10.37,2013-03-20 22:24:00,
2013-03-20 16:29:00,43.6,29.8,30.09,WNW,290,9.2,9.2,58,0.00,BKN,FEW,0.00,WeatherDisplay:10.37,2013-03-20 22:29:00,
2013-03-20 16:34:00,43.7,30.7,30.10,WSW,258,8.1,8.1,60,0.00,BKN,FEW,0.00,WeatherDisplay:10.37,2013-03-20 22:34:00,
2013-03-20 16:39:00,43.9,30.1,30.09,WNW,302,8.1,8.1,58,0.00,BKN,FEW,0.00,WeatherDisplay:10.37,2013-03-20 22:39:00,
2013-03-20 16:44:00,43.5,28.8,30.09,WNW,303,8.1,8.1,56,0.00,BKN,FEW,0.00,WeatherDisplay:10.37,2013-03-20 22:44:00,
2013-03-20 16:49:00,42.6,27.1,30.09,West,273,8.1,8.1,54,0.00,BKN,FEW,0.00,WeatherDisplay:10.37,2013-03-20 22:49:00,
2013-03-20 16:54:00,42.0,27.0,30.09,WNW,292,9.2,9.2,55,0.00,BKN,FEW,0.00,WeatherDisplay:10.37,2013-03-20 22:54:00,
2013-03-20 16:59:00,41.8,26.8,30.09,North,355,5.8,5.8,55,0.00,BKN,FEW,0.00,WeatherDisplay:10.37,2013-03-20 22:59:00,
2013-03-20 17:04:00,41.6,26.2,30.09,NW,310,8.1,8.1,54,0.00,BKN,FEW,0.00,WeatherDisplay:10.37,2013-03-20 23:04:00,
2013-03-20 17:09:00,41.5,26.1,30.09,WNW,299,5.8,5.8,54,0.00,BKN,FEW,0.00,WeatherDisplay:10.37,2013-03-20 23:09:00,
2013-03-20 17:14:00,41.7,25.8,30.09,NW,319,5.8,5.8,53,0.00,BKN,FEW,0.00,WeatherDisplay:10.37,2013-03-20 23:14:00,
2013-03-20 17:19:00,41.8,25.9,30.09,NNW,341,4.6,4.6,53,0.00,BKN,FEW,0.00,WeatherDisplay:10.37,2013-03-20 23:19:00,
2013-03-20 17:24:00,41.7,25.8,30.09,NNW,329,3.5,3.5,53,0.00,OVC,FEW,0.00,WeatherDisplay:10.37,2013-03-20 23:24:00,
2013-03-20 17:29:00,41.6,25.7,30.09,WNW,286,6.9,6.9,53,0.00,OVC,FEW,0.00,WeatherDisplay:10.37,2013-03-20 23:29:00,
2013-03-20 17:34:00,41.6,25.3,30.10,NNW,340,4.6,4.6,52,0.00,OVC,FEW,0.00,WeatherDisplay:10.37,2013-03-20 23:34:00,
2013-03-20 17:40:00,41.5,25.2,30.10,North,5,5.8,5.8,52,0.00,OVC,FEW,0.00,WeatherDisplay:10.37,2013-03-20 23:40:00,
2013-03-20 17:45:00,41.3,25.0,30.10,WNW,289,8.1,8.1,52,0.00,OVC,FEW,0.00,WeatherDisplay:10.37,2013-03-20 23:45:00,
2013-03-20 17:50:00,41.1,24.8,30.10,NW,311,5.8,5.8,52,0.00,OVC,FEW,0.00,WeatherDisplay:10.37,2013-03-20 23:50:00,
2013-03-20 17:55:00,40.9,24.1,30.10,North,355,9.2,9.2,51,0.00,OVC,FEW,0.00,WeatherDisplay:10.37,2013-03-20 23:55:00,
2013-03-20 18:00:00,40.8,24.1,30.10,NNW,327,6.9,6.9,51,0.00,OVC,FEW,0.00,WeatherDisplay:10.37,2013-03-21 00:00:00,
2013-03-20 18:05:00,40.6,23.4,30.10,North,360,8.1,8.1,50,0.00,OVC,FEW,0.00,WeatherDisplay:10.37,2013-03-21 00:05:00,
2013-03-20 18:10:00,40.4,23.7,30.10,North,5,5.8,5.8,51,0.00,OVC,FEW,0.00,WeatherDisplay:10.37,2013-03-21 00:10:00,
2013-03-20 18:15:00,40.1,23.4,30.10,NNW,344,3.5,3.5,51,0.00,OVC,FEW,0.00,WeatherDisplay:10.37,2013-03-21 00:15:00,
2013-03-20 18:20:00,40.0,23.8,30.10,NNE,30,4.6,4.6,52,0.00,FEW,,0.00,WeatherDisplay:10.37,2013-03-21 00:20:00,
2013-03-20 18:25:00,39.7,22.6,30.10,NNE,33,6.9,6.9,50,0.00,FEW,,0.00,WeatherDisplay:10.37,2013-03-21 00:25:00,
2013-03-20 18:30:00,39.5,21.9,30.10,NNW,331,8.1,8.1,49,0.00,FEW,,0.00,WeatherDisplay:10.37,2013-03-21 00:30:00,
2013-03-20 18:35:00,39.2,22.1,30.10,NNW,331,8.1,8.1,50,0.00,FEW,,0.00,WeatherDisplay:10.37,2013-03-21 00:35:00,
2013-03-20 18:40:00,39.0,22.4,30.10,NNE,24,5.4,5.4,51,0.00,FEW,,0.00,WeatherDisplay:10.37,2013-03-21 00:40:00,
2013-03-20 18:45:00,38.7,22.1,30.11,North,355,4.6,4.6,51,0.00,FEW,,0.00,WeatherDisplay:10.37,2013-03-21 00:45:00,
2013-03-20 18:50:00,38.6,21.5,30.10,North,360,4.6,4.6,50,0.00,FEW,,0.00,WeatherDisplay:10.37,2013-03-21 00:50:00,
2013-03-20 18:55:00,38.5,21.9,30.11,NNW,327,4.6,4.6,51,0.00,FEW,,0.00,WeatherDisplay:10.37,2013-03-21 00:55:00,
2013-03-20 19:00:00,38.3,21.7,30.11,NNW,340,3.5,3.5,51,0.00,FEW,,0.00,WeatherDisplay:10.37,2013-03-21 01:00:00,
2013-03-20 19:05:00,38.0,21.5,30.11,NW,307,4.6,4.6,51,0.00,FEW,,0.00,WeatherDisplay:10.37,2013-03-21 01:05:00,
2013-03-20 19:10:00,37.8,21.3,30.11,North,355,9.2,9.2,51,0.00,FEW,,0.00,WeatherDisplay:10.37,2013-03-21 01:10:00,
2013-03-20 19:15:00,37.6,21.1,30.11,NE,37,5.8,5.8,51,0.00,FEW,,0.00,WeatherDisplay:10.37,2013-03-21 01:15:00,
2013-03-20 19:20:00,37.3,21.3,30.11,NNE,14,8.1,8.1,52,0.00,CLR,FEW,0.00,WeatherDisplay:10.37,2013-03-21 01:20:00,
2013-03-20 19:25:00,36.9,20.9,30.11,North,355,12.7,12.7,52,0.00,CLR,FEW,0.00,WeatherDisplay:10.37,2013-03-21 01:25:00,
2013-03-20 19:30:00,36.7,21.2,30.12,NNE,27,9.2,9.2,53,0.00,CLR,FEW,0.00,WeatherDisplay:10.37,2013-03-21 01:30:00,
2013-03-20 19:35:00,36.4,20.9,30.12,North,5,5.8,5.8,53,0.00,CLR,FEW,0.00,WeatherDisplay:10.37,2013-03-21 01:35:00,
2013-03-20 19:40:00,36.1,21.0,30.12,North,350,3.5,3.5,54,0.00,CLR,FEW,0.00,WeatherDisplay:10.37,2013-03-21 01:40:00,
2013-03-20 19:45:00,35.8,20.8,30.12,ENE,77,6.9,6.9,54,0.00,CLR,FEW,0.00,WeatherDisplay:10.37,2013-03-21 01:45:00,
2013-03-20 19:50:00,35.5,20.5,30.12,NNE,16,6.9,6.9,54,0.00,CLR,FEW,0.00,WeatherDisplay:10.37,2013-03-21 01:50:00,
2013-03-20 19:55:00,35.2,21.1,30.13,NNW,348,6.9,6.9,56,0.00,CLR,FEW,0.00,WeatherDisplay:10.37,2013-03-21 01:55:00,
2013-03-20 20:00:00,35.0,20.4,30.13,NNW,342,8.1,8.1,55,0.00,CLR,FEW,0.00,WeatherDisplay:10.37,2013-03-21 02:00:00,
2013-03-20 20:05:00,34.8,21.1,30.13,North,11,5.4,5.4,57,0.00,CLR,FEW,0.00,WeatherDisplay:10.37,2013-03-21 02:05:00,
2013-03-20 20:10:00,34.5,20.4,30.13,North,355,5.8,5.8,56,0.00,CLR,FEW,0.00,WeatherDisplay:10.37,2013-03-21 02:10:00,
2013-03-20 20:15:00,34.2,20.1,30.13,NW,312,8.1,8.1,56,0.00,CLR,FEW,0.00,WeatherDisplay:10.37,2013-03-21 02:15:00,
2013-03-20 20:20:00,34.0,19.9,30.13,NNE,31,5.8,5.8,56,0.00,CLR,FEW,0.00,WeatherDisplay:10.37,2013-03-21 02:20:00,
2013-03-20 20:25:00,33.7,20.1,30.13,North,5,8.1,8.1,57,0.00,CLR,FEW,0.00,WeatherDisplay:10.37,2013-03-21 02:25:00,
2013-03-20 20:30:00,33.5,19.5,30.13,North,11,8.1,8.1,56,0.00,CLR,FEW,0.00,WeatherDisplay:10.37,2013-03-21 02:30:00,
2013-03-20 20:35:00,33.4,19.8,30.13,North,5,6.9,6.9,57,0.00,CLR,FEW,0.00,WeatherDisplay:10.37,2013-03-21 02:35:00,
2013-03-20 20:40:00,33.2,19.6,30.14,NNW,347,4.6,4.6,57,0.00,CLR,FEW,0.00,WeatherDisplay:10.37,2013-03-21 02:40:00,
2013-03-20 20:45:00,33.0,19.8,30.13,NW,313,4.6,4.6,58,0.00,CLR,FEW,0.00,WeatherDisplay:10.37,2013-03-21 02:45:00,
2013-03-20 20:50:00,32.8,19.2,30.13,NNE,24,5.8,5.8,57,0.00,CLR,FEW,0.00,WeatherDisplay:10.37,2013-03-21 02:50:00,
2013-03-20 20:55:00,32.6,19.4,30.13,North,360,6.9,6.9,58,0.00,CLR,FEW,0.00,WeatherDisplay:10.37,2013-03-21 02:55:00,
2013-03-20 21:00:00,32.5,19.3,30.14,NNW,336,4.3,4.3,58,0.00,CLR,FEW,0.00,WeatherDisplay:10.37,2013-03-21 03:00:00,
2013-03-20 21:05:00,32.4,19.3,30.14,NNW,333,5.8,5.8,58,0.00,CLR,FEW,0.00,WeatherDisplay:10.37,2013-03-21 03:05:00,
2013-03-20 21:10:00,32.2,19.1,30.14,ENE,61,4.6,4.6,58,0.00,CLR,FEW,0.00,WeatherDisplay:10.37,2013-03-21 03:10:00,
2013-03-20 21:15:00,32.0,19.3,30.13,NNE,20,4.6,4.6,59,0.00,CLR,FEW,0.00,WeatherDisplay:10.37,2013-03-21 03:15:00,
2013-03-20 21:20:00,31.8,19.1,30.13,North,5,4.6,4.6,59,0.00,CLR,FEW,0.00,WeatherDisplay:10.37,2013-03-21 03:20:00,
2013-03-20 21:25:00,31.8,19.5,30.13,North,355,4.6,4.6,60,0.00,CLR,FEW,0.00,WeatherDisplay:10.37,2013-03-21 03:25:00,
2013-03-20 21:30:00,31.6,19.3,30.13,North,9,8.1,8.1,60,0.00,CLR,FEW,0.00,WeatherDisplay:10.37,2013-03-21 03:30:00,
2013-03-20 21:35:00,31.5,19.2,30.13,NNE,26,4.6,4.6,60,0.00,CLR,FEW,0.00,WeatherDisplay:10.37,2013-03-21 03:35:00,
2013-03-20 21:40:00,31.4,19.1,30.13,NNW,342,5.8,5.8,60,0.00,CLR,FEW,0.00,WeatherDisplay:10.37,2013-03-21 03:40:00,
2013-03-20 21:46:00,31.3,19.0,30.13,NNE,17,7.5,7.5,60,0.00,CLR,FEW,0.00,WeatherDisplay:10.37,2013-03-21 03:46:00,
2013-03-20 21:51:00,31.2,19.3,30.14,North,11,4.6,4.6,61,0.00,CLR,FEW,0.00,WeatherDisplay:10.37,2013-03-21 03:51:00,
2013-03-20 21:56:00,31.0,18.7,30.14,NNE,16,2.3,2.3,60,0.00,CLR,FEW,0.00,WeatherDisplay:10.37,2013-03-21 03:56:00,
2013-03-20 22:00:00,30.9,18.6,30.14,NNW,338,4.3,4.3,60,0.00,CLR,FEW,0.00,WeatherDisplay:10.37,2013-03-21 04:00:00,
2013-03-20 22:05:00,30.8,18.5,30.14,NE,44,5.8,5.8,60,0.00,CLR,FEW,0.00,WeatherDisplay:10.37,2013-03-21 04:05:00,
2013-03-20 22:10:00,30.8,18.5,30.14,North,355,6.9,6.9,60,0.00,CLR,FEW,0.00,WeatherDisplay:10.37,2013-03-21 04:10:00,
2013-03-20 22:15:00,30.7,18.4,30.14,NNE,20,8.1,8.1,60,0.00,CLR,FEW,0.00,WeatherDisplay:10.37,2013-03-21 04:15:00,
2013-03-20 22:20:00,30.6,18.3,30.14,NNE,27,4.6,4.6,60,0.00,CLR,FEW,0.00,WeatherDisplay:10.37,2013-03-21 04:20:00,
2013-03-20 22:25:00,30.5,18.6,30.14,North,355,3.5,3.5,61,0.00,CLR,FEW,0.00,WeatherDisplay:10.37,2013-03-21 04:25:00,
2013-03-20 22:30:00,30.5,18.3,30.14,NNE,25,6.9,6.9,60,0.00,CLR,FEW,0.00,WeatherDisplay:10.37,2013-03-21 04:30:00,
2013-03-20 22:35:00,30.4,18.9,30.14,NW,317,2.3,2.3,62,0.00,CLR,FEW,0.00,WeatherDisplay:10.37,2013-03-21 04:35:00,
2013-03-20 22:40:00,30.2,18.4,30.13,NNE,25,3.5,3.5,61,0.00,CLR,FEW,0.00,WeatherDisplay:10.37,2013-03-21 04:40:00,
2013-03-20 22:45:00,30.0,18.5,30.14,NNE,17,4.6,4.6,62,0.00,CLR,FEW,0.00,WeatherDisplay:10.37,2013-03-21 04:45:00,
2013-03-20 22:50:00,29.9,18.1,30.14,NNE,30,6.9,6.9,61,0.00,CLR,FEW,0.00,WeatherDisplay:10.37,2013-03-21 04:50:00,
2013-03-20 22:55:00,29.9,18.5,30.14,NNE,27,2.3,2.3,62,0.00,CLR,FEW,0.00,WeatherDisplay:10.37,2013-03-21 04:55:00,
2013-03-20 23:00:00,29.9,18.1,30.14,NNE,13,5.4,5.4,61,0.00,CLR,FEW,0.00,WeatherDisplay:10.37,2013-03-21 05:00:00,
2013-03-20 23:05:00,29.9,18.1,30.14,North,9,4.6,4.6,61,0.00,CLR,FEW,0.00,WeatherDisplay:10.37,2013-03-21 05:05:00,
2013-03-20 23:10:00,29.7,18.3,30.14,North,10,2.3,2.3,62,0.00,CLR,FEW,0.00,WeatherDisplay:10.37,2013-03-21 05:10:00,
2013-03-20 23:15:00,29.7,18.3,30.14,North,11,0.0,0.4,62,0.00,CLR,FEW,0.00,WeatherDisplay:10.37,2013-03-21 05:15:00,
2013-03-20 23:20:00,29.6,18.2,30.14,North,5,4.6,4.6,62,0.00,CLR,FEW,0.00,WeatherDisplay:10.37,2013-03-21 05:20:00,
2013-03-20 23:25:00,29.5,18.4,30.14,North,9,4.3,4.3,63,0.00,CLR,FEW,0.00,WeatherDisplay:10.37,2013-03-21 05:25:00,
2013-03-20 23:30:00,29.4,18.3,30.13,NW,323,2.3,2.3,63,0.00,CLR,FEW,0.00,WeatherDisplay:10.37,2013-03-21 05:30:00,